createdAt,value
2018-12-14T00:00:06.229Z,63.96
2018-12-14T00:02:32.548Z,64.19
2018-12-14T00:04:58.781Z,64.74
2018-12-14T00:07:24.999Z,64.23
2018-12-14T00:09:51.203Z,64.16
2018-12-14T00:12:17.450Z,63.59
2018-12-14T00:14:43.648Z,62.87
2018-12-14T00:17:09.761Z,63.42
2018-12-14T00:19:36.193Z,63.57
2018-12-14T00:22:02.577Z,63.55
2018-12-14T00:24:28.806Z,63.78
2018-12-14T00:26:55.215Z,64.94
2018-12-14T00:29:21.301Z,64.27
2018-12-14T00:31:47.416Z,64.11
2018-12-14T00:34:13.561Z,63.99
2018-12-14T00:36:39.788Z,64.39
2018-12-14T00:39:06.093Z,63.75
2018-12-14T00:41:32.286Z,64.40
2018-12-14T00:43:58.509Z,63.53
2018-12-14T00:46:24.793Z,63.76
2018-12-14T00:48:50.964Z,63.83
2018-12-14T00:51:17.177Z,63.91
2018-12-14T00:53:43.429Z,64.17
2018-12-14T00:56:09.551Z,64.44
2018-12-14T00:58:35.757Z,63.93
2018-12-14T01:01:01.836Z,63.81
2018-12-14T01:03:28.136Z,64.53
2018-12-14T01:05:54.427Z,64.41
2018-12-14T01:08:20.722Z,64.60
2018-12-14T01:10:46.944Z,63.92
2018-12-14T01:13:14.023Z,64.37
2018-12-14T01:15:41.026Z,63.72
2018-12-14T01:18:07.141Z,64.27
2018-12-14T01:20:33.416Z,63.68
2018-12-14T01:22:59.561Z,63.23
2018-12-14T01:25:25.892Z,63.82
2018-12-14T01:27:52.113Z,63.37
2018-12-14T01:30:18.380Z,63.70
2018-12-14T01:32:44.512Z,63.30
2018-12-14T01:35:10.721Z,63.83
2018-12-14T01:37:36.998Z,63.81
2018-12-14T01:40:05.809Z,63.31
2018-12-14T01:42:32.056Z,63.15
2018-12-14T01:44:58.194Z,63.45
2018-12-14T01:47:24.405Z,63.63
2018-12-14T01:49:50.634Z,63.59
2018-12-14T01:52:18.228Z,63.40
2018-12-14T01:54:44.682Z,63.46
2018-12-14T01:57:11.019Z,63.73
2018-12-14T01:59:37.318Z,63.21
2018-12-14T02:02:03.517Z,63.82
2018-12-14T02:04:29.600Z,63.00
2018-12-14T02:06:55.707Z,62.64
2018-12-14T02:09:21.803Z,61.77
2018-12-14T02:11:48.026Z,62.57
2018-12-14T02:14:14.304Z,62.53
2018-12-14T02:16:40.490Z,62.90
2018-12-14T02:19:07.494Z,62.90
2018-12-14T02:21:34.273Z,62.86
2018-12-14T02:24:00.492Z,62.05
2018-12-14T02:26:26.732Z,62.68
2018-12-14T02:28:52.817Z,62.58
2018-12-14T02:31:20.037Z,61.92
2018-12-14T02:33:46.497Z,62.08
2018-12-14T02:36:12.768Z,61.47
2018-12-14T02:38:38.902Z,61.80
2018-12-14T02:41:05.318Z,61.98
2018-12-14T02:43:39.789Z,62.39
2018-12-14T02:46:06.126Z,62.08
2018-12-14T02:48:32.316Z,62.15
2018-12-14T02:50:58.497Z,61.90
2018-12-14T02:53:24.625Z,61.29
2018-12-14T02:55:50.814Z,61.53
2018-12-14T02:58:16.918Z,61.19
2018-12-14T03:00:43.142Z,60.80
2018-12-14T03:03:09.283Z,61.08
2018-12-14T03:05:35.491Z,60.82
2018-12-14T03:08:01.697Z,59.70
2018-12-14T03:10:28.127Z,61.04
2018-12-14T03:12:54.268Z,61.34
2018-12-14T03:15:21.475Z,61.52
2018-12-14T03:17:47.674Z,61.29
2018-12-14T03:20:13.897Z,61.00
2018-12-14T03:22:41.142Z,61.40
2018-12-14T03:25:08.312Z,60.75
2018-12-14T03:27:36.256Z,61.25
2018-12-14T03:30:05.942Z,60.78
2018-12-14T03:32:32.056Z,60.16
2018-12-14T03:34:58.183Z,60.26
2018-12-14T03:37:24.278Z,60.49
2018-12-14T03:39:50.378Z,59.87
2018-12-14T03:42:17.551Z,60.50
2018-12-14T03:44:43.847Z,60.20
2018-12-14T03:47:13.141Z,60.15
2018-12-14T03:49:39.613Z,60.71
2018-12-14T03:52:07.009Z,60.74
2018-12-14T03:54:34.057Z,60.29
2018-12-14T03:57:00.276Z,59.89
2018-12-14T03:59:26.398Z,58.85
2018-12-14T04:01:52.637Z,59.27
2018-12-14T04:04:18.841Z,60.71
2018-12-14T04:06:45.186Z,60.36
2018-12-14T04:09:11.372Z,60.36
2018-12-14T04:11:37.707Z,60.28
2018-12-14T04:14:04.132Z,60.13
2018-12-14T04:16:30.370Z,60.25
2018-12-14T04:18:56.517Z,60.45
2018-12-14T04:21:22.838Z,59.92
2018-12-14T04:23:49.032Z,60.27
2018-12-14T04:26:15.334Z,59.79
2018-12-14T04:28:41.484Z,59.51
2018-12-14T04:31:07.624Z,59.92
2018-12-14T04:33:34.287Z,59.86
2018-12-14T04:36:00.731Z,60.48
2018-12-14T04:38:26.876Z,60.26
2018-12-14T04:40:53.168Z,59.79
2018-12-14T04:43:19.443Z,60.02
2018-12-14T04:45:45.799Z,60.85
2018-12-14T04:48:12.310Z,60.87
2018-12-14T04:50:38.474Z,60.71
2018-12-14T04:53:04.797Z,60.04
2018-12-14T04:55:37.996Z,60.16
2018-12-14T04:58:05.016Z,60.91
2018-12-14T05:00:31.417Z,60.75
2018-12-14T05:02:57.551Z,60.93
2018-12-14T05:05:23.736Z,61.33
2018-12-14T05:07:49.927Z,60.89
2018-12-14T05:10:16.069Z,61.77
2018-12-14T05:12:42.175Z,61.63
2018-12-14T05:15:08.438Z,61.50
2018-12-14T05:17:34.718Z,60.92
2018-12-14T05:20:01.136Z,60.80
2018-12-14T05:22:27.880Z,60.64
2018-12-14T05:24:54.128Z,60.09
2018-12-14T05:27:20.592Z,60.95
2018-12-14T05:29:47.250Z,60.76
2018-12-14T05:32:13.515Z,61.16
2018-12-14T05:34:39.772Z,60.38
2018-12-14T05:37:06.033Z,60.89
2018-12-14T05:39:32.289Z,61.33
2018-12-14T05:41:58.500Z,61.92
2018-12-14T05:44:25.007Z,61.77
2018-12-14T05:46:51.181Z,61.70
2018-12-14T05:49:17.272Z,61.59
2018-12-14T05:51:43.546Z,61.65
2018-12-14T05:54:10.746Z,61.66
2018-12-14T05:56:37.213Z,61.73
2018-12-14T05:59:03.356Z,62.04
2018-12-14T06:01:30.047Z,63.33
2018-12-14T06:03:56.771Z,62.77
2018-12-14T06:06:23.051Z,62.42
2018-12-14T06:08:49.237Z,62.36
2018-12-14T06:11:15.433Z,62.73
2018-12-14T06:13:41.926Z,62.88
2018-12-14T06:16:08.248Z,63.09
2018-12-14T06:18:35.547Z,63.24
2018-12-14T06:21:01.759Z,63.01
2018-12-14T06:23:28.928Z,63.22
2018-12-14T06:25:55.046Z,63.62
2018-12-14T06:28:21.286Z,63.48
2018-12-14T06:30:47.573Z,63.85
2018-12-14T06:33:13.858Z,63.32
2018-12-14T06:35:40.076Z,63.65
2018-12-14T06:38:07.530Z,63.74
2018-12-14T06:40:35.064Z,62.83
2018-12-14T06:43:01.278Z,62.84
2018-12-14T06:45:27.389Z,63.44
2018-12-14T06:47:53.505Z,62.89
2018-12-14T06:50:19.921Z,63.55
2018-12-14T06:52:47.169Z,63.54
2018-12-14T06:55:13.429Z,63.74
2018-12-14T06:57:40.364Z,63.26
2018-12-14T07:00:07.777Z,63.58
2018-12-14T07:02:34.025Z,63.57
2018-12-14T07:05:01.150Z,63.45
2018-12-14T07:07:27.351Z,62.46
2018-12-14T07:10:00.490Z,63.00
2018-12-14T07:12:27.807Z,63.20
2018-12-14T07:14:53.937Z,63.95
2018-12-14T07:17:20.102Z,64.13
2018-12-14T07:19:46.450Z,64.29
2018-12-14T07:22:14.969Z,63.97
2018-12-14T07:24:41.096Z,64.75
2018-12-14T07:27:20.967Z,64.36
2018-12-14T07:29:56.519Z,63.20
2018-12-14T07:32:22.690Z,63.50
2018-12-14T07:34:49.108Z,63.92
2018-12-14T07:37:15.934Z,63.06
2018-12-14T07:39:42.088Z,63.21
2018-12-14T07:42:08.348Z,63.52
2018-12-14T07:44:34.741Z,63.53
2018-12-14T07:47:01.189Z,64.18
2018-12-14T07:49:27.330Z,63.99
2018-12-14T07:51:54.252Z,63.98
2018-12-14T07:54:20.490Z,63.28
2018-12-14T07:56:46.689Z,62.96
2018-12-14T07:59:13.573Z,62.75
2018-12-14T08:01:39.716Z,63.38
2018-12-14T08:04:05.873Z,62.68
2018-12-14T08:06:31.968Z,62.49
2018-12-14T08:08:58.167Z,62.23
2018-12-14T08:11:24.501Z,62.55
2018-12-14T08:13:50.724Z,62.24
2018-12-14T08:16:17.164Z,62.49
2018-12-14T08:18:43.258Z,62.78
2018-12-14T08:21:09.388Z,62.35
2018-12-14T08:23:35.574Z,62.51
2018-12-14T08:26:01.701Z,61.29
2018-12-14T08:28:27.985Z,61.76
2018-12-14T08:30:54.249Z,61.26
2018-12-14T08:33:20.381Z,61.87
2018-12-14T08:35:46.635Z,62.33
2018-12-14T08:38:13.518Z,62.41
2018-12-14T08:40:39.709Z,62.79
2018-12-14T08:43:05.915Z,62.69
2018-12-14T08:45:32.124Z,63.23
2018-12-14T08:47:58.641Z,62.52
2018-12-14T08:50:25.005Z,63.09
2018-12-14T08:52:51.231Z,63.60
2018-12-14T08:55:17.594Z,62.52
2018-12-14T08:57:43.970Z,62.83
2018-12-14T09:00:10.425Z,62.61
2018-12-14T09:02:36.553Z,62.46
2018-12-14T09:05:04.557Z,62.34
2018-12-14T09:07:30.788Z,62.31
2018-12-14T09:09:57.007Z,61.46
2018-12-14T09:12:23.104Z,61.22
2018-12-14T09:14:49.325Z,61.00
2018-12-14T09:17:16.372Z,60.21
2018-12-14T09:19:44.551Z,61.19
2018-12-14T09:22:11.703Z,61.02
2018-12-14T09:24:37.997Z,60.58
2018-12-14T09:27:11.299Z,60.95
2018-12-14T09:29:37.750Z,59.85
2018-12-14T09:32:04.297Z,59.70
2018-12-14T09:34:30.484Z,59.57
2018-12-14T09:36:56.718Z,60.14
2018-12-14T09:39:22.848Z,60.02
2018-12-14T09:41:49.083Z,60.43
2018-12-14T09:44:15.385Z,60.22
2018-12-14T09:46:41.562Z,59.84
2018-12-14T09:49:07.792Z,58.79
2018-12-14T09:51:34.144Z,58.89
2018-12-14T09:54:00.288Z,58.58
2018-12-14T09:56:26.720Z,58.73
2018-12-14T09:58:52.862Z,58.89
2018-12-14T10:01:19.048Z,58.51
2018-12-14T10:03:45.675Z,57.60
2018-12-14T10:06:15.638Z,58.41
2018-12-14T10:08:40.046Z,58.01
2018-12-14T10:11:12.265Z,57.81
2018-12-14T10:13:38.933Z,57.54
2018-12-14T10:16:05.300Z,56.79
2018-12-14T10:18:31.999Z,57.14
2018-12-14T10:20:58.228Z,56.20
2018-12-14T10:23:24.549Z,56.53
2018-12-14T10:25:50.936Z,56.04
2018-12-14T10:28:17.174Z,55.77
2018-12-14T10:30:43.479Z,55.23
2018-12-14T10:33:09.602Z,54.73
2018-12-14T10:35:35.853Z,55.34
2018-12-14T10:38:02.333Z,55.14
2018-12-14T10:40:28.745Z,55.18
2018-12-14T10:42:55.965Z,55.61
2018-12-14T10:45:24.072Z,55.59
2018-12-14T10:47:51.166Z,54.86
2018-12-14T10:50:17.333Z,55.29
2018-12-14T10:52:43.760Z,55.26
2018-12-14T10:55:09.932Z,54.99
2018-12-14T10:57:36.554Z,54.85
2018-12-14T11:02:54.942Z,54.35
2018-12-14T11:05:21.171Z,53.75
2018-12-14T11:07:47.274Z,54.70
2018-12-14T11:10:13.867Z,54.43
2018-12-14T11:12:40.170Z,53.78
2018-12-14T11:15:06.692Z,53.75
2018-12-14T11:17:32.974Z,53.64
2018-12-14T11:19:59.100Z,53.41
2018-12-14T11:22:25.331Z,52.82
2018-12-14T11:24:51.506Z,52.98
2018-12-14T11:27:17.630Z,53.95
2018-12-14T11:29:43.808Z,53.26
2018-12-14T11:32:09.903Z,53.23
2018-12-14T11:34:36.113Z,52.73
2018-12-14T11:37:02.393Z,52.65
2018-12-14T11:39:28.517Z,52.68
2018-12-14T11:41:54.690Z,52.15
2018-12-14T11:44:28.466Z,52.47
2018-12-14T11:47:02.585Z,52.45
2018-12-14T11:49:28.822Z,52.93
2018-12-14T11:51:54.941Z,52.99
2018-12-14T11:54:21.158Z,52.59
2018-12-14T11:56:47.441Z,50.28
2018-12-14T11:59:13.650Z,49.87
2018-12-14T12:01:40.040Z,49.52
2018-12-14T12:04:13.107Z,49.26
2018-12-14T12:06:39.395Z,50.38
2018-12-14T12:09:07.731Z,50.01
2018-12-14T12:11:33.832Z,48.43
2018-12-14T12:14:00.847Z,49.21
2018-12-14T12:16:27.182Z,50.01
2018-12-14T12:18:53.414Z,51.35
2018-12-14T12:21:19.566Z,50.92
2018-12-14T12:23:45.791Z,51.66
2018-12-14T12:26:12.043Z,51.32
2018-12-14T12:28:38.143Z,51.44
2018-12-14T12:31:05.170Z,51.20
2018-12-14T12:33:31.437Z,50.95
2018-12-14T12:35:57.657Z,49.96
2018-12-14T12:38:23.993Z,50.43
2018-12-14T12:40:51.324Z,49.69
2018-12-14T12:43:17.439Z,49.26
2018-12-14T12:45:43.570Z,50.08
2018-12-14T12:48:09.787Z,50.67
2018-12-14T12:50:36.923Z,50.59
2018-12-14T12:53:03.274Z,51.35
2018-12-14T12:55:29.557Z,51.54
2018-12-14T12:57:55.782Z,50.64
2018-12-14T13:00:24.635Z,51.98
2018-12-14T13:02:50.984Z,50.31
2018-12-14T13:05:17.248Z,49.97
2018-12-14T13:07:43.494Z,50.14
2018-12-14T13:10:10.685Z,51.15
2018-12-14T13:12:44.565Z,50.08
2018-12-14T13:15:11.642Z,50.51
2018-12-14T13:17:37.769Z,50.90
2018-12-14T13:20:04.126Z,49.89
2018-12-14T13:22:30.595Z,50.93
2018-12-14T13:24:57.707Z,51.08
2018-12-14T13:27:23.920Z,51.26
2018-12-14T13:29:50.858Z,51.60
2018-12-14T13:34:56.445Z,50.29
2018-12-14T13:37:22.753Z,50.38
2018-12-14T13:39:49.058Z,50.55
2018-12-14T13:42:15.215Z,50.70
2018-12-14T13:44:46.734Z,50.84
2018-12-14T13:47:13.024Z,50.44
2018-12-14T13:49:40.528Z,51.09
2018-12-14T13:52:06.871Z,51.17
2018-12-14T13:54:33.023Z,52.29
2018-12-14T13:57:00.186Z,52.90
2018-12-14T13:59:26.400Z,53.35
2018-12-14T14:01:52.516Z,53.09
2018-12-14T14:04:18.777Z,52.91
2018-12-14T14:06:45.819Z,53.75
2018-12-14T14:09:12.264Z,52.86
2018-12-14T14:11:39.948Z,53.65
2018-12-14T14:14:06.762Z,53.65
2018-12-14T14:16:32.886Z,54.43
2018-12-14T14:18:59.209Z,53.82
2018-12-14T14:21:25.425Z,53.93
2018-12-14T14:23:51.737Z,54.27
2018-12-14T14:26:18.886Z,54.35
2018-12-14T14:28:45.805Z,54.47
2018-12-14T14:31:12.159Z,54.21
2018-12-14T14:33:45.336Z,54.09
2018-12-14T14:36:12.577Z,54.42
2018-12-14T14:38:39.651Z,53.50
2018-12-14T14:41:05.857Z,53.99
2018-12-14T14:43:31.961Z,53.58
2018-12-14T14:45:59.110Z,54.10
2018-12-14T14:48:26.840Z,54.11
2018-12-14T14:50:52.945Z,53.41
2018-12-14T14:53:25.933Z,52.63
2018-12-14T14:55:52.100Z,53.25
2018-12-14T14:58:18.301Z,53.29
2018-12-14T15:00:44.491Z,52.92
2018-12-14T15:03:11.646Z,51.65
2018-12-14T15:05:37.797Z,52.02
2018-12-14T15:08:04.125Z,51.80
2018-12-14T15:10:30.319Z,51.24
2018-12-14T15:12:56.457Z,51.11
2018-12-14T15:15:23.481Z,52.39
2018-12-14T15:17:49.687Z,52.99
2018-12-14T15:20:17.182Z,53.73
2018-12-14T15:22:43.384Z,53.93
2018-12-14T15:25:09.751Z,54.62
2018-12-14T15:27:37.982Z,54.61
2018-12-14T15:30:04.350Z,55.51
2018-12-14T15:32:31.788Z,56.08
2018-12-14T15:34:59.290Z,56.17
2018-12-14T15:37:25.721Z,56.17
2018-12-14T15:39:51.859Z,57.69
2018-12-14T15:42:18.697Z,57.79
2018-12-14T15:44:45.075Z,57.54
2018-12-14T15:47:11.438Z,57.72
2018-12-14T15:49:37.791Z,57.52
2018-12-14T15:52:04.106Z,58.00
2018-12-14T15:54:31.470Z,57.46
2018-12-14T15:56:57.608Z,58.47
2018-12-14T15:59:23.961Z,58.33
2018-12-14T16:01:50.391Z,58.67
2018-12-14T16:04:16.831Z,58.77
2018-12-14T16:06:43.313Z,58.87
2018-12-14T16:09:09.615Z,58.56
2018-12-14T16:11:36.519Z,57.57
2018-12-14T16:14:03.822Z,59.03
2018-12-14T16:16:29.983Z,58.55
2018-12-14T16:18:57.359Z,59.06
2018-12-14T16:21:23.618Z,58.88
2018-12-14T16:23:49.904Z,58.64
2018-12-14T16:26:16.156Z,59.30
2018-12-14T16:28:42.551Z,59.04
2018-12-14T16:31:09.957Z,59.75
2018-12-14T16:33:36.123Z,58.73
2018-12-14T16:36:09.417Z,59.70
2018-12-14T16:38:35.640Z,59.39
2018-12-14T16:41:01.867Z,60.32
2018-12-14T16:43:28.050Z,59.70
2018-12-14T16:45:54.377Z,59.87
2018-12-14T16:48:21.458Z,59.16
2018-12-14T16:50:48.325Z,59.62
2018-12-14T16:53:14.788Z,59.82
2018-12-14T16:55:41.549Z,60.61
2018-12-14T16:58:07.854Z,61.24
2018-12-14T17:00:34.813Z,60.01
2018-12-14T17:03:00.939Z,59.91
2018-12-14T17:05:27.802Z,59.69
2018-12-14T17:07:54.589Z,60.17
2018-12-14T17:10:21.000Z,59.33
2018-12-14T17:12:47.167Z,59.54
2018-12-14T17:15:14.149Z,58.96
2018-12-14T17:17:40.342Z,59.12
2018-12-14T17:20:06.620Z,59.74
2018-12-14T17:22:32.880Z,59.86
2018-12-14T17:24:59.034Z,59.71
2018-12-14T17:27:26.003Z,60.38
2018-12-14T17:29:52.133Z,60.91
2018-12-14T17:32:19.305Z,60.49
2018-12-14T17:34:45.514Z,60.54
2018-12-14T17:37:11.829Z,60.38
2018-12-14T17:39:38.106Z,60.90
2018-12-14T17:42:05.118Z,61.04
2018-12-14T17:44:32.250Z,61.70
2018-12-14T17:46:59.530Z,61.88
2018-12-14T17:49:25.862Z,61.81
2018-12-14T17:51:52.419Z,61.08
2018-12-14T17:54:18.774Z,61.79
2018-12-14T17:56:45.568Z,61.55
2018-12-14T17:59:11.740Z,61.10
2018-12-14T18:01:39.061Z,60.61
2018-12-14T18:04:05.265Z,61.25
2018-12-14T18:06:31.392Z,61.71
2018-12-14T18:09:06.309Z,61.53
2018-12-14T18:11:32.805Z,61.59
2018-12-14T18:13:59.116Z,61.25
2018-12-14T18:16:25.750Z,62.40
2018-12-14T18:18:58.941Z,61.77
2018-12-14T18:21:25.296Z,61.59
2018-12-14T18:23:51.465Z,61.68
2018-12-14T18:26:17.749Z,62.28
2018-12-14T18:28:43.861Z,61.99
2018-12-14T18:31:10.085Z,62.06
2018-12-14T18:33:36.258Z,61.97
2018-12-14T18:36:02.704Z,61.77
2018-12-14T18:38:28.949Z,62.09
2018-12-14T18:40:55.151Z,61.50
2018-12-14T18:45:58.799Z,61.98
2018-12-14T18:48:25.136Z,61.49
2018-12-14T18:50:51.972Z,61.98
2018-12-14T18:53:18.190Z,61.89
2018-12-14T18:55:44.917Z,61.45
2018-12-14T18:58:18.130Z,61.49
2018-12-14T19:00:44.589Z,61.60
2018-12-14T19:03:10.942Z,61.43
2018-12-14T19:05:37.150Z,61.69
2018-12-14T19:08:04.445Z,62.20
2018-12-14T19:10:30.677Z,61.01
2018-12-14T19:12:57.130Z,60.94
2018-12-14T19:15:23.530Z,59.81
2018-12-14T19:17:49.843Z,60.06
2018-12-14T19:20:16.212Z,60.47
2018-12-14T19:22:42.359Z,59.95
2018-12-14T19:25:10.302Z,60.42
2018-12-14T19:27:37.354Z,61.03
2018-12-14T19:30:03.963Z,60.51
2018-12-14T19:32:31.171Z,60.83
2018-12-14T19:34:58.442Z,60.76
2018-12-14T19:37:24.719Z,59.74
2018-12-14T19:39:51.671Z,59.93
2018-12-14T19:42:17.945Z,58.94
2018-12-14T19:44:45.112Z,60.02
2018-12-14T19:47:13.048Z,60.17
2018-12-14T19:49:39.768Z,59.92
2018-12-14T19:52:06.474Z,59.33
2018-12-14T19:54:32.929Z,59.13
2018-12-14T19:57:00.198Z,58.67
2018-12-14T19:59:26.586Z,58.28
2018-12-14T20:01:53.084Z,58.97
2018-12-14T20:04:19.413Z,58.38
2018-12-14T20:06:45.657Z,58.57
2018-12-14T20:09:11.790Z,59.58
2018-12-14T20:11:38.058Z,59.92
2018-12-14T20:14:04.653Z,60.53
2018-12-14T20:16:31.067Z,60.88
2018-12-14T20:18:57.317Z,61.27
2018-12-14T20:21:23.529Z,61.03
2018-12-14T20:23:49.681Z,61.24
2018-12-14T20:26:15.927Z,61.17
2018-12-14T20:28:42.200Z,60.67
2018-12-14T20:31:08.419Z,61.02
2018-12-14T20:33:34.561Z,60.74
2018-12-14T20:36:00.794Z,60.88
2018-12-14T20:38:27.119Z,61.32
2018-12-14T20:40:53.262Z,60.35
2018-12-14T20:43:19.535Z,61.54
2018-12-14T20:45:45.705Z,61.54
2018-12-14T20:48:12.042Z,61.53
2018-12-14T20:50:38.162Z,61.42
2018-12-14T20:53:04.605Z,61.82
2018-12-14T20:55:30.843Z,61.26
2018-12-14T20:57:57.097Z,61.63
2018-12-14T21:00:23.355Z,61.60
2018-12-14T21:02:49.687Z,61.37
2018-12-14T21:05:16.053Z,61.28
2018-12-14T21:07:42.267Z,60.78
2018-12-14T21:10:08.626Z,60.93
2018-12-14T21:12:35.207Z,60.44
2018-12-14T21:15:01.691Z,60.06
2018-12-14T21:17:28.072Z,59.65
2018-12-14T21:19:54.202Z,60.00
2018-12-14T21:22:20.495Z,60.37
2018-12-14T21:24:46.629Z,60.51
2018-12-14T21:27:12.788Z,59.33
2018-12-14T21:29:39.166Z,59.56
2018-12-14T21:32:05.273Z,59.80
2018-12-14T21:34:31.587Z,60.32
2018-12-14T21:36:57.706Z,60.03
2018-12-14T21:39:23.962Z,60.29
2018-12-14T21:41:50.287Z,59.43
2018-12-14T21:44:16.432Z,59.57
2018-12-14T21:46:42.515Z,59.52
2018-12-14T21:49:08.695Z,58.66
2018-12-14T21:51:34.841Z,58.63
2018-12-14T21:54:01.178Z,58.88
2018-12-14T21:56:27.371Z,59.00
2018-12-14T21:58:53.820Z,58.93
2018-12-14T22:01:20.164Z,58.68
2018-12-14T22:03:46.442Z,57.92
2018-12-14T22:06:12.544Z,58.31
2018-12-14T22:08:38.815Z,58.18
2018-12-14T22:11:05.051Z,57.86
2018-12-14T22:13:31.646Z,58.31
2018-12-14T22:15:57.840Z,58.26
2018-12-14T22:18:24.143Z,57.69
2018-12-14T22:20:50.358Z,57.93
2018-12-14T22:23:18.117Z,58.48
2018-12-14T22:25:44.337Z,57.38
2018-12-14T22:28:10.547Z,57.79
2018-12-14T22:30:36.755Z,57.46
2018-12-14T22:33:03.596Z,56.83
2018-12-14T22:35:29.943Z,56.93
2018-12-14T22:37:56.234Z,57.28
2018-12-14T22:40:22.552Z,56.66
2018-12-14T22:42:48.772Z,56.84
2018-12-14T22:45:15.012Z,57.11
2018-12-14T22:47:41.326Z,58.68
2018-12-14T22:50:07.662Z,57.53
2018-12-14T22:52:33.985Z,56.36
2018-12-14T22:55:00.212Z,56.50
2018-12-14T22:57:26.319Z,57.20
2018-12-14T22:59:52.620Z,56.66
2018-12-14T23:02:18.853Z,56.71
2018-12-14T23:04:45.105Z,56.17
2018-12-14T23:07:11.329Z,56.34
2018-12-14T23:09:37.469Z,56.11
2018-12-14T23:12:03.716Z,56.24
2018-12-14T23:14:30.090Z,57.15
2018-12-14T23:16:56.364Z,57.91
2018-12-14T23:19:22.732Z,57.70
2018-12-14T23:21:49.127Z,57.53
2018-12-14T23:24:15.473Z,58.10
2018-12-14T23:26:41.700Z,58.50
2018-12-14T23:29:07.835Z,58.71
2018-12-14T23:31:34.349Z,58.96
2018-12-14T23:34:00.516Z,58.24
2018-12-14T23:36:27.420Z,58.53
2018-12-14T23:38:53.721Z,59.14
2018-12-14T23:41:20.016Z,58.74
2018-12-14T23:43:46.260Z,58.90
2018-12-14T23:46:12.493Z,58.14
2018-12-14T23:48:38.606Z,58.65
2018-12-14T23:51:04.872Z,58.22
2018-12-14T23:53:31.483Z,57.39
2018-12-14T23:55:57.863Z,57.86
2018-12-14T23:58:24.353Z,58.91
